createdAt,value
2022-10-17T00:03:29.287Z,87.30
2022-10-17T00:08:25.494Z,94.30
2022-10-17T00:13:21.769Z,98.07
2022-10-17T00:18:18.039Z,93.47
2022-10-17T00:23:14.254Z,101.20
2022-10-17T00:28:11.635Z,102.47
2022-10-17T00:33:07.819Z,102.40
2022-10-17T00:38:04.022Z,106.57
2022-10-17T00:43:00.203Z,106.43
2022-10-17T00:48:08.374Z,106.65
2022-10-17T00:53:05.387Z,106.72
2022-10-17T00:58:02.947Z,107.68
2022-10-17T01:08:11.143Z,110.72
2022-10-17T01:13:13.266Z,107.25
2022-10-17T01:18:28.206Z,106.38
2022-10-17T01:23:48.756Z,107.75
2022-10-17T01:28:47.942Z,103.40
2022-10-17T01:33:44.171Z,105.22
2022-10-17T01:38:45.624Z,105.70
2022-10-17T01:43:46.728Z,102.82
2022-10-17T01:48:43.906Z,105.18
2022-10-17T01:53:44.537Z,106.82
2022-10-17T01:58:43.700Z,101.38
2022-10-17T02:03:42.047Z,105.05
2022-10-17T02:08:43.551Z,104.90
2022-10-17T02:13:58.378Z,106.35
2022-10-17T02:19:13.072Z,106.05
2022-10-17T02:24:27.791Z,102.45
2022-10-17T02:29:26.414Z,103.55
2022-10-17T02:34:25.816Z,102.70
2022-10-17T02:39:22.549Z,107.82
2022-10-17T02:44:19.742Z,105.00
2022-10-17T02:49:23.227Z,102.35
2022-10-17T02:54:41.601Z,98.40
2022-10-17T02:59:38.975Z,98.32
2022-10-17T03:04:35.201Z,101.88
2022-10-17T03:09:31.385Z,100.93
2022-10-17T03:14:27.587Z,100.90
2022-10-17T03:19:23.775Z,102.32
2022-10-17T03:24:19.982Z,94.03
2022-10-17T03:29:16.292Z,96.55
2022-10-17T03:34:12.636Z,91.70
2022-10-17T03:39:08.983Z,98.55
2022-10-17T03:44:05.186Z,97.85
2022-10-17T03:49:01.552Z,94.93
2022-10-17T03:53:57.761Z,96.18
2022-10-17T03:58:54.337Z,95.90
2022-10-17T04:03:53.221Z,94.90
2022-10-17T04:08:49.475Z,98.40
2022-10-17T04:13:46.237Z,99.95
2022-10-17T04:18:42.704Z,101.30
2022-10-17T04:23:39.323Z,101.13
2022-10-17T04:28:36.064Z,98.57
2022-10-17T04:33:32.499Z,98.15
2022-10-17T04:38:29.185Z,104.03
2022-10-17T04:43:26.366Z,97.88
2022-10-17T04:48:22.738Z,100.72
2022-10-17T04:53:19.077Z,100.38
2022-10-17T04:58:15.687Z,104.85
2022-10-17T05:03:11.874Z,104.25
2022-10-17T05:08:09.046Z,102.70
2022-10-17T05:13:05.700Z,104.53
2022-10-17T05:18:01.958Z,106.45
2022-10-17T05:23:01.289Z,107.13
2022-10-17T05:27:57.507Z,102.72
2022-10-17T05:32:55.062Z,101.43
2022-10-17T05:37:51.363Z,110.25
2022-10-17T05:42:48.298Z,110.70
2022-10-17T05:47:44.681Z,112.53
2022-10-17T05:52:42.879Z,107.47
2022-10-17T05:57:41.341Z,108.85
2022-10-17T06:02:37.614Z,114.65
2022-10-17T06:07:33.830Z,115.38
2022-10-17T06:12:30.558Z,112.60
2022-10-17T06:17:28.049Z,114.05
2022-10-17T06:22:24.363Z,114.15
2022-10-17T06:27:20.989Z,117.55
2022-10-17T06:32:17.291Z,114.63
2022-10-17T06:37:13.480Z,120.90
2022-10-17T06:42:09.695Z,122.07
2022-10-17T06:47:05.886Z,115.78
2022-10-17T06:52:02.107Z,119.05
2022-10-17T06:56:58.323Z,118.82
2022-10-17T07:01:54.514Z,119.07
2022-10-17T07:06:50.759Z,122.45
2022-10-17T07:11:47.136Z,123.93
2022-10-17T07:16:43.353Z,122.97
2022-10-17T07:21:39.583Z,124.53
2022-10-17T07:26:36.043Z,127.22
2022-10-17T07:31:32.227Z,124.18
2022-10-17T07:36:28.832Z,121.40
2022-10-17T07:41:25.408Z,116.25
2022-10-17T07:46:21.595Z,103.50
2022-10-17T07:51:19.955Z,94.50
2022-10-17T07:56:16.172Z,91.43
2022-10-17T08:01:15.495Z,91.47
2022-10-17T08:06:12.935Z,97.00
2022-10-17T08:11:10.605Z,86.43
2022-10-17T08:16:07.874Z,78.85
2022-10-17T08:21:08.799Z,74.13
2022-10-17T08:26:06.453Z,67.97
2022-10-17T08:31:06.938Z,61.35
2022-10-17T08:36:04.512Z,64.80
2022-10-17T08:41:01.766Z,64.90
2022-10-17T08:46:00.373Z,60.22
2022-10-17T08:50:59.134Z,58.63
2022-10-17T08:55:55.598Z,59.95
2022-10-17T09:01:01.041Z,60.00
2022-10-17T09:06:03.440Z,59.55
2022-10-17T09:10:59.765Z,52.97
2022-10-17T09:16:10.720Z,48.60
2022-10-17T09:21:17.706Z,45.88
2022-10-17T09:26:14.404Z,45.88
2022-10-17T09:31:20.332Z,40.42
2022-10-17T09:36:18.523Z,41.17
2022-10-17T09:46:38.179Z,41.75
2022-10-17T09:51:37.077Z,44.45
2022-10-17T09:56:53.230Z,46.30
2022-10-17T10:01:53.119Z,44.72
2022-10-17T10:07:03.142Z,44.67
2022-10-17T10:12:01.834Z,43.25
2022-10-17T10:16:58.077Z,39.15
2022-10-17T10:21:55.412Z,40.78
2022-10-17T10:26:54.261Z,38.42
2022-10-17T10:31:51.337Z,35.55
2022-10-17T10:37:01.971Z,37.67
2022-10-17T10:41:58.429Z,37.35
2022-10-17T10:47:07.917Z,32.25
2022-10-17T10:52:04.248Z,30.70
2022-10-17T10:57:03.260Z,31.75
2022-10-17T11:02:10.650Z,27.65
2022-10-17T11:07:20.086Z,28.48
2022-10-17T11:12:22.865Z,32.17
2022-10-17T11:17:19.207Z,32.10
2022-10-17T11:22:24.019Z,33.60
2022-10-17T11:27:24.252Z,33.28
2022-10-17T11:32:31.529Z,29.75
2022-10-17T11:37:34.140Z,30.40
2022-10-17T11:47:44.494Z,23.15
2022-10-17T11:52:55.970Z,22.25
2022-10-17T11:57:52.801Z,20.98
2022-10-17T12:02:48.958Z,20.73
2022-10-17T12:07:51.565Z,18.17
2022-10-17T12:12:49.303Z,36.20
2022-10-17T12:17:55.372Z,54.90
2022-10-17T12:22:54.312Z,86.90
2022-10-17T12:27:50.881Z,88.05
2022-10-17T12:33:05.739Z,105.18
2022-10-17T12:38:13.937Z,106.80
2022-10-17T12:43:32.924Z,108.43
2022-10-17T12:48:38.412Z,104.82
2022-10-17T12:53:49.603Z,107.25
2022-10-17T12:58:46.546Z,110.95
2022-10-17T13:03:44.565Z,116.20
2022-10-17T13:08:43.734Z,113.07
2022-10-17T13:13:45.180Z,109.35
2022-10-17T13:18:41.422Z,108.30
2022-10-17T13:23:37.834Z,95.03
2022-10-17T13:28:38.495Z,84.03
2022-10-17T13:33:38.907Z,93.07
2022-10-17T13:38:38.925Z,88.68
2022-10-17T13:43:38.727Z,87.18
2022-10-17T13:48:36.599Z,85.70
2022-10-17T13:53:41.238Z,85.75
2022-10-17T13:58:45.818Z,87.85
2022-10-17T14:03:48.646Z,91.32
2022-10-17T14:08:50.996Z,94.90
2022-10-17T14:13:51.028Z,89.82
2022-10-17T14:18:49.217Z,91.85
2022-10-17T14:23:45.442Z,90.60
2022-10-17T14:28:43.364Z,92.07
2022-10-17T14:33:44.047Z,90.32
2022-10-17T14:43:38.328Z,88.75
2022-10-17T14:48:34.518Z,88.45
2022-10-17T14:53:30.768Z,82.57
2022-10-17T14:58:28.343Z,81.53
2022-10-17T15:03:24.801Z,82.00
2022-10-17T15:08:22.103Z,78.47
2022-10-17T15:13:40.097Z,76.35
2022-10-17T15:18:34.982Z,77.80
2022-10-17T15:23:31.276Z,74.63
2022-10-17T15:28:27.585Z,76.18
2022-10-17T15:33:23.825Z,74.10
2022-10-17T15:38:20.164Z,71.20
2022-10-17T15:43:19.787Z,67.00
2022-10-17T15:48:18.778Z,71.78
2022-10-17T15:53:15.253Z,69.00
2022-10-17T15:58:14.875Z,67.60
2022-10-17T16:03:11.402Z,66.70
2022-10-17T16:08:07.755Z,66.13
2022-10-17T16:13:03.985Z,63.15
2022-10-17T16:18:02.805Z,65.45
2022-10-17T16:23:03.423Z,62.83
2022-10-17T16:28:00.190Z,63.13
2022-10-17T16:32:56.937Z,62.33
2022-10-17T16:37:53.251Z,60.75
2022-10-17T16:42:49.588Z,59.65
2022-10-17T16:47:46.334Z,59.70
2022-10-17T16:52:43.475Z,59.20
2022-10-17T16:57:39.755Z,58.88
2022-10-17T17:02:36.005Z,60.58
2022-10-17T17:07:33.489Z,63.65
2022-10-17T17:12:31.731Z,66.53
2022-10-17T17:17:36.825Z,61.00
2022-10-17T17:27:37.046Z,67.32
2022-10-17T17:32:33.343Z,66.97
2022-10-17T17:37:29.848Z,69.00
2022-10-17T17:42:26.412Z,70.82
2022-10-17T17:47:22.628Z,70.35
2022-10-17T17:52:19.058Z,73.20
2022-10-17T17:57:15.300Z,72.95
2022-10-17T18:02:11.573Z,67.43
2022-10-17T18:07:07.822Z,70.65
2022-10-17T18:12:04.161Z,72.15
2022-10-17T18:17:00.487Z,65.80
2022-10-17T18:21:56.827Z,64.80
2022-10-17T18:26:56.059Z,66.65
2022-10-17T18:31:52.384Z,64.40
2022-10-17T18:36:48.671Z,64.10
2022-10-17T18:41:44.856Z,63.13
2022-10-17T18:46:41.604Z,63.78
2022-10-17T18:51:37.955Z,62.67
2022-10-17T18:56:34.611Z,64.32
2022-10-17T19:01:30.866Z,62.40
2022-10-17T19:06:28.136Z,60.13
2022-10-17T19:11:25.408Z,58.70
2022-10-17T19:16:29.039Z,61.85
2022-10-17T19:21:25.677Z,59.50
2022-10-17T19:26:22.796Z,59.33
2022-10-17T19:31:26.536Z,54.38
2022-10-17T19:36:27.558Z,54.70
2022-10-17T19:41:26.938Z,56.83
2022-10-17T19:46:24.157Z,57.42
2022-10-17T19:51:24.254Z,58.63
2022-10-17T19:56:21.190Z,57.60
2022-10-17T20:01:20.090Z,61.20
2022-10-17T20:06:16.656Z,59.97
2022-10-17T20:11:14.886Z,65.43
2022-10-17T20:16:12.347Z,66.97
2022-10-17T20:21:10.276Z,69.53
2022-10-17T20:26:25.469Z,71.05
2022-10-17T20:31:24.402Z,72.80
2022-10-17T20:36:23.209Z,76.53
2022-10-17T20:41:19.617Z,74.95
2022-10-17T20:46:29.363Z,70.85
2022-10-17T20:51:31.621Z,68.68
2022-10-17T20:56:29.291Z,72.97
2022-10-17T21:01:26.095Z,69.00
2022-10-17T21:06:22.914Z,71.43
2022-10-17T21:11:20.651Z,71.55
2022-10-17T21:16:17.804Z,71.30
2022-10-17T21:21:15.917Z,78.18
2022-10-17T21:26:12.676Z,81.55
2022-10-17T21:31:09.020Z,82.95
2022-10-17T21:36:05.364Z,82.95
2022-10-17T21:41:01.643Z,79.30
2022-10-17T21:46:00.868Z,78.78
2022-10-17T21:50:58.297Z,78.30
2022-10-17T21:55:54.884Z,80.05
2022-10-17T22:00:51.079Z,76.70
2022-10-17T22:05:47.418Z,74.35
2022-10-17T22:10:43.600Z,80.00
2022-10-17T22:15:39.805Z,78.22
2022-10-17T22:20:36.103Z,81.32
2022-10-17T22:25:32.293Z,79.70
2022-10-17T22:30:28.518Z,80.15
2022-10-17T22:35:24.836Z,83.28
2022-10-17T22:40:21.002Z,81.85
2022-10-17T22:45:17.203Z,79.13
2022-10-17T22:50:13.480Z,82.32
2022-10-17T22:55:09.903Z,81.95
2022-10-17T23:00:06.943Z,79.20
2022-10-17T23:05:04.027Z,81.85
2022-10-17T23:10:00.288Z,81.38
2022-10-17T23:14:56.498Z,77.30
2022-10-17T23:19:55.512Z,75.90
2022-10-17T23:24:53.861Z,75.07
2022-10-17T23:29:50.052Z,77.30
2022-10-17T23:34:46.553Z,79.95
2022-10-17T23:39:42.758Z,80.22
2022-10-17T23:44:38.968Z,80.25
2022-10-17T23:49:35.188Z,82.57
2022-10-17T23:54:31.617Z,82.00
2022-10-17T23:59:27.826Z,82.88
